Time;durP1;ratioP1;P1;durP2;ratioP2;P2;SDS_P1;SDS_P2;PMS_P1;PMS_P2;Temp;Humidity;BMP_temperature;BMP_pressure;BME280_temperature;BME280_humidity;BME280_pressure;Samples;Min_cycle;Max_cycle;Signal;HPM_P1;HPM_P2
2022/08/28 00:00:39;;;;;;;11.05;4.35;;;;;;;23.01;74.25;99918.63;5551554;32;34420;-68
2022/08/28 00:03:42;;;;;;;10.18;4.15;;;;;;;23.06;74.39;99924.06;5551513;32;34224;-68
2022/08/28 00:06:45;;;;;;;10.90;4.62;;;;;;;23.06;73.98;99930.31;5551377;32;35528;-68
2022/08/28 00:09:48;;;;;;;10.45;4.12;;;;;;;23.08;75.23;99920.06;5537848;32;32992;-67
2022/08/28 00:12:53;;;;;;;7.82;4.53;;;;;;;23.29;72.58;99910.97;5551370;32;34282;-68
2022/08/28 00:16:02;;;;;;;13.43;4.25;;;;;;;23.56;71.16;99921.69;5551430;32;34276;-68
2022/08/28 00:19:05;;;;;;;18.85;5.22;;;;;;;23.67;70.83;99922.56;5551384;32;34205;-69
2022/08/28 00:22:08;;;;;;;15.20;4.85;;;;;;;22.60;87.35;99929.12;5537769;32;33510;-69
2022/08/28 00:25:12;;;;;;;17.75;4.85;;;;;;;21.63;99.59;99921.03;5551399;32;34221;-69
2022/08/28 00:28:16;;;;;;;13.73;4.55;;;;;;;21.21;100.00;99910.75;5551317;32;35417;-69
2022/08/28 00:31:27;;;;;;;8.98;4.57;;;;;;;21.14;100.00;99896.63;5550871;32;34576;-68
2022/08/28 00:34:31;;;;;;;14.10;4.95;;;;;;;21.02;100.00;99898.56;5551186;32;34236;-68
2022/08/28 00:37:34;;;;;;;10.73;4.87;;;;;;;21.21;100.00;99889.16;5551179;32;34276;-66
2022/08/28 00:40:40;;;;;;;9.77;4.73;;;;;;;21.27;100.00;99900.03;5550989;32;35407;-66
2022/08/28 00:43:45;;;;;;;10.80;4.95;;;;;;;21.25;100.00;99908.38;5551233;32;34318;-68
2022/08/28 00:46:51;;;;;;;9.02;4.72;;;;;;;21.50;100.00;99915.97;5551108;32;34198;-67
2022/08/28 00:49:55;;;;;;;13.50;5.30;;;;;;;21.54;100.00;99920.62;5551097;32;34863;-68
2022/08/28 00:53:00;;;;;;;16.85;4.60;;;;;;;21.71;98.72;99917.06;5550467;32;34452;-68
2022/08/28 00:56:07;;;;;;;13.25;5.15;;;;;;;21.67;99.91;99930.25;5550834;32;34285;-67
2022/08/28 00:59:19;;;;;;;9.30;4.60;;;;;;;21.66;99.83;99932.13;5550939;32;35659;-68
2022/08/28 01:02:22;;;;;;;11.30;4.65;;;;;;;21.67;98.32;99925.66;5550884;32;35457;-69
2022/08/28 01:05:27;;;;;;;15.65;4.72;;;;;;;21.73;95.58;99926.56;5551025;32;34608;-68
2022/08/28 01:08:31;;;;;;;18.87;4.62;;;;;;;21.64;97.39;99933.44;5537419;32;33426;-68
2022/08/28 01:11:34;;;;;;;14.02;4.15;;;;;;;21.68;94.04;99937.28;5550809;32;34166;-68
2022/08/28 01:14:38;;;;;;;10.93;3.83;;;;;;;21.68;91.04;99926.50;5537732;32;35462;-68
2022/08/28 01:17:46;;;;;;;11.75;3.40;;;;;;;21.66;91.28;99942.94;5550876;32;34289;-69
2022/08/28 01:21:04;;;;;;;5.15;2.97;;;;;;;21.70;88.67;99929.75;5550993;32;34577;-67
2022/08/28 01:24:16;;;;;;;12.48;3.60;;;;;;;21.74;87.64;99922.75;5550989;32;34163;-67
2022/08/28 01:27:20;;;;;;;5.62;3.08;;;;;;;21.74;85.75;99932.75;5550800;32;34836;-68
2022/08/28 01:30:25;;;;;;;29.52;3.70;;;;;;;21.73;85.28;99931.13;5537506;32;34280;-66
2022/08/28 01:33:28;;;;;;;11.23;3.00;;;;;;;21.66;86.45;99947.50;5550761;32;34899;-67
2022/08/28 01:36:32;;;;;;;12.32;3.00;;;;;;;21.60;84.99;99951.19;5537315;32;32706;-65
2022/08/28 01:39:34;;;;;;;13.25;2.70;;;;;;;21.58;85.56;99947.97;5550596;32;34627;-68
2022/08/28 01:42:41;;;;;;;8.35;2.70;;;;;;;21.52;85.81;99944.38;5550960;32;34232;-66
2022/08/28 01:45:46;;;;;;;6.82;2.80;;;;;;;21.50;85.69;99967.25;5550992;32;34360;-68
2022/08/28 01:48:49;;;;;;;7.47;3.12;;;;;;;21.43;87.38;99975.56;5550651;32;34237;-68
2022/08/28 01:51:51;;;;;;;10.32;2.80;;;;;;;21.38;86.75;99958.47;5550564;32;34949;-65
2022/08/28 01:54:58;;;;;;;8.75;2.83;;;;;;;21.38;87.43;99964.69;5550578;32;34248;-67
2022/08/28 01:58:03;;;;;;;5.35;2.80;;;;;;;21.26;87.57;99966.66;5550566;32;34187;-68
2022/08/28 02:01:12;;;;;;;5.90;3.10;;;;;;;21.22;88.11;99965.53;5550491;32;35562;-67
2022/08/28 02:04:15;;;;;;;4.82;2.72;;;;;;;21.20;88.83;99967.66;5550262;32;34188;-66
2022/08/28 02:07:18;;;;;;;7.70;3.30;;;;;;;21.20;88.35;99951.47;5550495;32;34485;-68
2022/08/28 02:10:23;;;;;;;5.00;2.70;;;;;;;21.15;89.60;99944.12;5550484;32;34113;-67
2022/08/28 02:13:26;;;;;;;5.60;2.67;;;;;;;21.05;89.68;99945.81;5550270;32;34809;-68
2022/08/28 02:16:29;;;;;;;9.00;3.10;;;;;;;20.98;90.81;99940.59;5550331;32;34965;-67
2022/08/28 02:19:32;;;;;;;5.70;2.55;;;;;;;20.94;90.55;99936.75;5550436;32;35420;-67
2022/08/28 02:22:35;;;;;;;7.72;3.25;;;;;;;20.86;91.39;99930.97;5550589;32;34887;-68
2022/08/28 02:25:38;;;;;;;10.32;3.00;;;;;;;20.80;92.36;99928.19;5550331;32;34593;-67
2022/08/28 02:28:42;;;;;;;6.30;2.72;;;;;;;20.73;93.19;99914.03;5550282;32;34160;-68
2022/08/28 02:31:44;;;;;;;5.97;2.83;;;;;;;20.68;93.87;99918.53;5550171;32;34682;-68
2022/08/28 02:34:47;;;;;;;6.82;2.75;;;;;;;20.65;94.21;99916.31;5550183;32;35475;-68
2022/08/28 02:37:50;;;;;;;7.00;3.55;;;;;;;20.62;94.65;99919.53;5550212;32;34906;-68
2022/08/28 02:40:56;;;;;;;9.85;2.92;;;;;;;20.58;95.17;99919.16;5536766;32;34045;-68
2022/08/28 02:43:59;;;;;;;5.78;2.90;;;;;;;20.60;94.74;99925.16;5550093;32;35436;-68
2022/08/28 02:47:02;;;;;;;8.45;2.83;;;;;;;20.51;95.31;99933.88;5549875;32;34166;-68
2022/08/28 02:50:06;;;;;;;6.12;3.37;;;;;;;20.48;96.12;99926.28;5549988;32;34271;-68
2022/08/28 02:53:10;;;;;;;7.40;3.35;;;;;;;20.46;95.99;99931.09;5536363;32;34368;-67
2022/08/28 02:56:12;;;;;;;5.50;3.10;;;;;;;20.46;95.12;99937.31;5549917;32;34211;-67
2022/08/28 02:59:15;;;;;;;5.85;3.03;;;;;;;20.47;95.18;99922.78;5536551;32;34837;-68
2022/08/28 03:02:18;;;;;;;7.72;3.30;;;;;;;20.51;94.52;99917.69;5549502;32;35423;-68
2022/08/28 03:05:23;;;;;;;5.87;2.78;;;;;;;20.54;94.57;99933.37;5549877;32;34286;-68
2022/08/28 03:08:27;;;;;;;9.90;3.40;;;;;;;20.64;93.84;99936.25;5550047;32;34162;-67
2022/08/28 03:11:30;;;;;;;5.07;2.87;;;;;;;20.78;93.42;99959.94;5549555;32;34267;-68
2022/08/28 03:14:32;;;;;;;8.00;2.80;;;;;;;20.75;92.20;99976.63;5549513;32;34226;-66
2022/08/28 03:17:36;;;;;;;7.72;3.25;;;;;;;20.77;92.35;99979.88;5550488;32;34960;-67
2022/08/28 03:20:39;;;;;;;6.97;3.42;;;;;;;20.62;92.49;99943.78;5551810;32;34135;-68
2022/08/28 03:23:42;;;;;;;6.15;3.03;;;;;;;20.59;92.39;99936.97;5552135;32;34312;-69
2022/08/28 03:26:45;;;;;;;6.97;2.85;;;;;;;20.57;91.99;99951.78;5552196;32;34220;-68
2022/08/28 03:29:48;;;;;;;6.40;3.30;;;;;;;20.58;92.49;99962.28;5538280;32;33593;-67
2022/08/28 03:32:50;;;;;;;10.40;3.78;;;;;;;20.61;92.35;99958.31;5551841;32;34366;-68
2022/08/28 03:35:54;;;;;;;5.18;2.90;;;;;;;20.58;92.47;99961.47;5551798;32;34930;-67
2022/08/28 03:38:59;;;;;;;7.85;3.37;;;;;;;20.56;92.69;99960.91;5551885;32;34273;-68
2022/08/28 03:42:02;;;;;;;8.95;3.65;;;;;;;20.52;93.39;99951.69;5551687;32;34149;-67
2022/08/28 03:45:10;;;;;;;6.47;3.00;;;;;;;20.48;93.83;99964.81;5538168;32;34164;-67
2022/08/28 03:48:13;;;;;;;7.53;3.20;;;;;;;20.42;95.00;99968.50;5551649;32;34167;-68
2022/08/28 03:51:20;;;;;;;8.18;3.22;;;;;;;20.31;96.09;99962.09;5551568;32;34967;-67
2022/08/28 03:54:31;;;;;;;10.80;3.40;;;;;;;20.22;97.76;99971.59;5551683;32;34761;-67
2022/08/28 03:57:34;;;;;;;6.82;3.12;;;;;;;20.18;98.48;99969.63;5551594;32;34826;-67
2022/08/28 04:00:39;;;;;;;7.85;3.45;;;;;;;20.14;98.87;99971.16;5538069;32;34217;-67
2022/08/28 04:03:42;;;;;;;10.00;3.65;;;;;;;20.11;99.56;99969.75;5551457;32;34239;-67
2022/08/28 04:06:44;;;;;;;10.10;3.60;;;;;;;20.06;100.00;99956.19;5537994;32;34650;-68
2022/08/28 04:09:47;;;;;;;12.27;3.65;;;;;;;19.99;100.00;99950.13;5551400;32;34773;-68
2022/08/28 04:12:49;;;;;;;9.10;3.90;;;;;;;19.99;100.00;99952.84;5551394;32;34304;-68
2022/08/28 04:16:04;;;;;;;7.87;3.97;;;;;;;20.07;100.00;99959.69;5551378;32;34252;-67
2022/08/28 04:19:07;;;;;;;8.90;3.40;;;;;;;20.02;100.00;99964.97;5551251;32;34715;-68
2022/08/28 04:22:10;;;;;;;9.20;3.72;;;;;;;20.04;99.84;99954.81;5551205;32;34202;-68
2022/08/28 04:25:14;;;;;;;8.43;3.97;;;;;;;20.06;99.27;99947.28;5537854;32;34179;-68
2022/08/28 04:28:17;;;;;;;16.33;3.80;;;;;;;20.04;99.53;99955.63;5551189;32;34137;-68
2022/08/28 04:31:19;;;;;;;10.20;4.05;;;;;;;20.14;98.43;99961.19;5537677;32;34242;-68
2022/08/28 04:34:36;;;;;;;7.03;3.35;;;;;;;20.18;97.96;99967.75;5551273;32;35376;-68
2022/08/28 04:37:39;;;;;;;12.43;4.53;;;;;;;20.19;98.25;99969.34;5537399;32;35109;-68
2022/08/28 04:40:42;;;;;;;8.45;3.30;;;;;;;20.21;98.00;99974.50;5551128;32;34817;-68
2022/08/28 04:43:45;;;;;;;9.57;4.00;;;;;;;20.23;97.97;99964.31;5551237;32;34580;-69
2022/08/28 04:46:47;;;;;;;9.32;3.87;;;;;;;20.28;97.07;99961.72;5537605;32;34890;-68
2022/08/28 04:49:50;;;;;;;7.70;3.40;;;;;;;20.36;97.61;99972.13;5551157;32;34210;-69
2022/08/28 04:52:53;;;;;;;10.18;3.40;;;;;;;20.49;96.42;99973.72;5551348;32;34763;-68
2022/08/28 04:55:57;;;;;;;5.10;3.25;;;;;;;20.54;95.15;99977.31;5551028;32;34929;-69
2022/08/28 04:59:01;;;;;;;6.47;3.22;;;;;;;20.62;94.73;99984.22;5550659;32;34257;-68
2022/08/28 05:02:04;;;;;;;7.35;3.53;;;;;;;20.74;93.94;99999.25;5550952;32;34192;-68
2022/08/28 05:05:07;;;;;;;6.65;3.33;;;;;;;20.79;95.16;99998.50;5550896;32;34156;-68
2022/08/28 05:08:11;;;;;;;6.30;3.50;;;;;;;20.91;95.46;99987.66;5550935;32;34155;-69
2022/08/28 05:11:20;;;;;;;6.57;3.37;;;;;;;20.88;94.29;99994.34;5537507;32;32841;-69
2022/08/28 05:14:36;;;;;;;7.03;3.47;;;;;;;20.95;94.46;99999.59;5551048;32;34281;-69
2022/08/28 05:17:39;;;;;;;5.53;3.17;;;;;;;21.04;93.57;100000.81;5537247;32;34443;-68
2022/08/28 05:20:45;;;;;;;7.87;3.45;;;;;;;21.17;93.20;100014.00;5551127;32;34266;-68
2022/08/28 05:23:50;;;;;;;5.97;3.28;;;;;;;21.12;91.69;100003.91;5550630;32;34829;-68
2022/08/28 05:26:52;;;;;;;10.05;3.60;;;;;;;21.23;91.66;100003.06;5537243;32;32985;-68
2022/08/28 05:29:55;;;;;;;6.53;3.40;;;;;;;21.25;90.94;100008.22;5550648;32;34139;-69
2022/08/28 05:33:04;;;;;;;6.35;3.22;;;;;;;21.21;90.71;100017.84;5537426;32;32690;-68
2022/08/28 05:36:07;;;;;;;8.25;3.00;;;;;;;21.31;90.59;100014.47;5550839;32;34905;-69
2022/08/28 05:39:11;;;;;;;11.12;3.30;;;;;;;21.42;90.66;100016.28;5549938;32;34191;-69
2022/08/28 05:42:14;;;;;;;7.53;3.28;;;;;;;21.45;89.60;100015.75;5550519;32;34176;-69
2022/08/28 05:45:17;;;;;;;10.10;2.85;;;;;;;21.52;88.57;100011.84;5550613;32;34278;-69
2022/08/28 05:48:20;;;;;;;4.82;2.85;;;;;;;21.56;87.07;100012.97;5550567;32;34903;-69
2022/08/28 05:51:25;;;;;;;10.18;3.22;;;;;;;21.61;86.54;100007.66;5536707;32;33075;-69
2022/08/28 05:54:27;;;;;;;6.03;3.00;;;;;;;21.72;86.37;100002.41;5536626;32;33655;-68
2022/08/28 05:57:30;;;;;;;7.28;3.00;;;;;;;21.85;85.92;100005.53;5550457;32;34137;-68
2022/08/28 06:00:33;;;;;;;6.18;2.80;;;;;;;21.82;84.78;100008.75;5550708;32;34840;-69
2022/08/28 06:03:36;;;;;;;6.90;2.95;;;;;;;21.94;84.31;99997.84;5536464;32;32692;-69
2022/08/28 06:06:40;;;;;;;6.15;2.67;;;;;;;22.06;84.13;100010.19;5523948;32;32568;-69
2022/08/28 06:09:43;;;;;;;6.22;2.85;;;;;;;22.16;82.79;100014.06;5523293;32;32842;-69
2022/08/28 06:12:45;;;;;;;6.25;3.30;;;;;;;22.23;81.02;99999.28;5550208;32;34286;-69
2022/08/28 06:15:48;;;;;;;5.60;2.97;;;;;;;22.29;79.79;99998.28;5536747;32;32650;-69
2022/08/28 06:18:51;;;;;;;9.50;2.90;;;;;;;22.36;81.07;100001.59;5550403;32;34227;-69
2022/08/28 06:21:57;;;;;;;5.80;2.95;;;;;;;22.78;79.24;100003.66;5550273;32;34232;-69
2022/08/28 06:24:59;;;;;;;6.37;3.40;;;;;;;22.96;77.46;99998.69;5550447;32;34121;-67
2022/08/28 06:28:02;;;;;;;7.37;3.33;;;;;;;22.88;77.37;100007.28;5550108;32;35182;-68
2022/08/28 06:31:06;;;;;;;11.15;3.58;;;;;;;22.89;77.04;99997.28;5523666;32;33841;-69
2022/08/28 06:34:28;;;;;;;6.60;3.42;;;;;;;23.17;76.23;99994.25;5549933;32;34235;-69
2022/08/28 06:37:31;;;;;;;7.37;3.20;;;;;;;23.57;74.66;100001.03;5549907;32;34216;-70
2022/08/28 06:40:43;;;;;;;6.25;2.90;;;;;;;24.06;71.40;100001.56;5536162;32;32674;-68
2022/08/28 06:43:46;;;;;;;6.53;2.78;;;;;;;23.92;71.41;99995.78;5549949;32;34600;-69
2022/08/28 06:46:52;;;;;;;7.22;2.85;;;;;;;24.22;69.99;99998.66;5549738;32;34821;-69
2022/08/28 06:49:54;;;;;;;11.77;3.05;;;;;;;24.66;68.80;100011.78;5536328;32;34409;-70
2022/08/28 06:52:57;;;;;;;8.07;2.60;;;;;;;25.28;65.17;100008.00;5548416;32;34268;-70
2022/08/28 06:56:05;;;;;;;5.10;2.37;;;;;;;26.22;61.71;100009.97;5549825;32;34527;-70
2022/08/28 06:59:08;;;;;;;6.90;2.50;;;;;;;26.92;59.17;100006.00;5535554;32;33307;-70
2022/08/28 07:02:10;;;;;;;8.07;2.70;;;;;;;27.22;57.53;100010.37;5549682;32;34269;-70
2022/08/28 07:05:14;;;;;;;5.40;2.55;;;;;;;27.34;56.63;100019.00;5535914;32;33315;-70
2022/08/28 07:08:16;;;;;;;7.87;2.22;;;;;;;27.22;56.96;100013.91;5549456;32;34869;-70
2022/08/28 07:11:28;;;;;;;5.95;2.25;;;;;;;26.78;59.50;100016.69;5549324;32;34293;-71
2022/08/28 07:14:30;;;;;;;5.28;2.40;;;;;;;26.74;59.36;100018.38;5523011;32;32635;-70
2022/08/28 07:17:34;;;;;;;7.62;2.47;;;;;;;27.12;58.08;100019.47;5549447;32;34243;-70
2022/08/28 07:20:37;;;;;;;5.15;2.55;;;;;;;27.13;57.61;100036.59;5535488;32;34279;-69
2022/08/28 07:23:43;;;;;;;4.12;2.35;;;;;;;26.89;58.15;100031.09;5549139;32;34520;-69
2022/08/28 07:26:46;;;;;;;4.05;2.20;;;;;;;27.54;55.96;100027.00;5509813;32;32820;-70
2022/08/28 07:29:51;;;;;;;6.22;2.50;;;;;;;28.24;53.79;100040.94;5535223;32;32663;-70
2022/08/28 07:32:54;;;;;;;5.55;2.37;;;;;;;27.25;56.77;100037.84;5548918;32;34224;-69
2022/08/28 07:35:59;;;;;;;5.12;2.12;;;;;;;26.73;59.02;100034.97;5548960;32;35417;-69
2022/08/28 07:39:01;;;;;;;4.75;2.15;;;;;;;27.21;57.40;100036.81;5535090;32;32494;-70
2022/08/28 07:42:04;;;;;;;8.52;2.40;;;;;;;26.99;58.40;100041.91;5548758;32;34169;-69
2022/08/28 07:45:08;;;;;;;8.13;2.20;;;;;;;26.69;58.92;100037.44;5534763;32;32796;-69
2022/08/28 07:48:12;;;;;;;7.62;2.60;;;;;;;27.78;56.06;100039.84;5549172;32;34889;-69
2022/08/28 07:51:15;;;;;;;6.60;2.42;;;;;;;28.51;54.05;100040.31;5548560;32;34635;-69
2022/08/28 07:54:19;;;;;;;4.62;2.53;;;;;;;29.35;51.10;100050.25;5548334;32;34286;-69
2022/08/28 07:57:22;;;;;;;6.00;2.05;;;;;;;28.50;53.61;100044.16;5548637;32;35001;-69
2022/08/28 08:00:25;;;;;;;6.55;2.50;;;;;;;29.32;51.71;100048.13;5548314;32;34926;-69
2022/08/28 08:03:30;;;;;;;6.53;2.40;;;;;;;29.97;50.42;100045.28;5549404;32;34917;-70
2022/08/28 08:06:35;;;;;;;7.87;2.50;;;;;;;29.53;49.59;100043.09;5537871;32;33028;-70
2022/08/28 08:09:40;;;;;;;5.45;2.30;;;;;;;30.40;47.55;100036.75;5537641;32;32612;-70
2022/08/28 08:12:43;;;;;;;6.62;2.25;;;;;;;31.45;45.11;100032.59;5550913;32;34175;-70
2022/08/28 08:15:46;;;;;;;5.85;2.20;;;;;;;32.18;43.64;100040.22;5537881;32;34123;-69
2022/08/28 08:18:49;;;;;;;5.45;2.50;;;;;;;33.66;40.36;100052.78;5523946;32;32779;-70
2022/08/28 08:21:53;;;;;;;5.97;2.20;;;;;;;32.75;41.18;100053.87;5551106;32;34281;-69
2022/08/28 08:24:56;;;;;;;6.15;2.55;;;;;;;32.94;39.99;100053.56;5550735;32;34910;-70
2022/08/28 08:27:59;;;;;;;6.72;2.08;;;;;;;32.34;41.52;100046.84;5550780;32;34574;-70
2022/08/28 08:31:08;;;;;;;5.62;2.28;;;;;;;31.47;44.25;100055.81;5537010;32;33495;-69
2022/08/28 08:34:15;;;;;;;8.35;2.30;;;;;;;30.39;46.61;100057.03;5537400;32;32577;-69
2022/08/28 08:37:17;;;;;;;5.85;2.20;;;;;;;31.01;44.63;100058.94;5550788;32;34903;-68
2022/08/28 08:40:22;;;;;;;7.55;2.08;;;;;;;32.14;42.42;100052.97;5550872;32;34325;-68
2022/08/28 08:43:27;;;;;;;5.35;2.47;;;;;;;33.66;38.74;100067.34;5550857;32;34620;-69
2022/08/28 08:46:35;;;;;;;6.40;2.42;;;;;;;34.56;37.47;100067.94;5550695;32;34212;-69
2022/08/28 08:49:47;;;;;;;10.00;2.55;;;;;;;32.05;41.27;100062.28;5524445;32;33094;-69
2022/08/28 08:53:18;;;;;;;6.90;1.85;;;;;;;33.94;38.55;100070.50;5550929;32;34202;-70
2022/08/28 08:56:22;;;;;;;3.95;2.35;;;;;;;32.81;39.47;100066.34;5550736;32;34765;-71
2022/08/28 08:59:38;;;;;;;4.32;2.10;;;;;;;33.34;39.19;100070.69;5537100;32;33726;-70
2022/08/28 09:03:04;;;;;;;4.72;2.00;;;;;;;34.39;35.96;100068.84;5536666;32;32410;-70
2022/08/28 09:06:22;;;;;;;3.50;1.90;;;;;;;34.02;37.72;100072.44;5536645;32;32802;-70
2022/08/28 09:09:33;;;;;;;4.78;2.28;;;;;;;35.36;33.27;100063.06;5536867;32;33652;-70
2022/08/28 09:13:07;;;;;;;6.43;2.00;;;;;;;35.98;33.24;100057.31;5536494;32;33555;-69
2022/08/28 09:16:25;;;;;;;5.15;2.12;;;;;;;36.70;32.36;100066.72;5549362;32;35065;-71
2022/08/28 09:19:29;;;;;;;4.40;2.00;;;;;;;36.27;31.45;100063.78;5536575;32;33611;-70
2022/08/28 09:22:31;;;;;;;6.15;2.20;;;;;;;35.49;32.42;100061.13;5550949;32;34632;-70
2022/08/28 09:25:43;;;;;;;4.05;2.05;;;;;;;35.28;33.05;100056.50;5550671;32;34661;-70
2022/08/28 09:28:59;;;;;;;3.75;2.30;;;;;;;33.52;35.88;100055.75;5550582;32;35664;-70
2022/08/28 09:32:28;;;;;;;5.28;2.25;;;;;;;33.32;36.48;100065.50;5550060;32;34337;-70
2022/08/28 09:35:38;;;;;;;9.52;2.15;;;;;;;32.02;38.34;100057.41;5537010;32;33300;-68
2022/08/28 09:38:44;;;;;;;7.28;2.40;;;;;;;31.77;38.16;100053.44;5537388;32;34203;-71
2022/08/28 09:45:23;;;;;;;7.70;2.37;;;;;;;33.75;35.06;100068.16;5536691;32;32675;-70
2022/08/28 09:48:45;;;;;;;6.53;2.20;;;;;;;36.02;32.12;100069.28;5550391;32;34258;-69
2022/08/28 09:51:49;;;;;;;5.15;1.90;;;;;;;35.91;30.44;100070.09;5536814;32;32486;-70
2022/08/28 09:54:54;;;;;;;4.30;1.98;;;;;;;34.81;32.59;100069.69;5536841;32;34306;-70
2022/08/28 09:58:07;;;;;;;6.03;2.22;;;;;;;33.66;34.03;100063.78;5550413;32;34463;-69
2022/08/28 10:01:50;;;;;;;5.82;2.65;;;;;;;32.27;36.90;100068.50;5536739;32;34855;-69
2022/08/28 10:05:15;;;;;;;5.37;2.28;;;;;;;30.87;39.80;100051.84;5523886;32;33724;-70
2022/08/28 10:08:44;;;;;;;6.75;2.60;;;;;;;30.63;41.23;100047.47;5550308;32;34950;-70
2022/08/28 10:11:56;;;;;;;8.23;2.53;;;;;;;30.63;42.08;100043.91;5549408;32;34283;-69
2022/08/28 10:15:13;;;;;;;8.63;2.72;;;;;;;30.42;41.54;100037.22;5536794;32;33564;-70
2022/08/28 10:18:44;;;;;;;5.45;2.42;;;;;;;30.73;40.62;100051.09;5550166;32;34757;-70
2022/08/28 10:22:01;;;;;;;7.43;2.80;;;;;;;30.62;41.30;100043.09;5550199;32;34181;-69
2022/08/28 10:25:18;;;;;;;7.03;2.60;;;;;;;30.92;42.45;100043.50;5523896;32;34529;-69
2022/08/28 10:29:18;;;;;;;5.93;2.60;;;;;;;30.69;41.68;100030.91;5536605;32;33059;-70
2022/08/28 10:32:46;;;;;;;8.55;2.83;;;;;;;31.16;42.20;100038.56;5471627;32;33547;-69
2022/08/28 10:35:58;;;;;;;9.32;2.65;;;;;;;31.16;39.93;100041.31;5479837;32;34183;-70
2022/08/28 10:39:17;;;;;;;5.80;2.60;;;;;;;31.19;39.83;100045.34;5549874;32;34703;-71
2022/08/28 10:42:32;;;;;;;5.80;3.12;;;;;;;31.89;38.81;100037.19;5549892;32;34814;-70
2022/08/28 10:45:39;;;;;;;10.68;2.90;;;;;;;34.38;34.15;100042.44;5536271;32;32976;-69
2022/08/28 10:48:58;;;;;;;7.30;2.53;;;;;;;36.52;30.58;100032.19;5536357;32;32590;-70
2022/08/28 10:52:14;;;;;;;8.75;3.10;;;;;;;37.92;27.98;100044.78;5536399;32;34278;-69
2022/08/28 10:55:34;;;;;;;7.10;2.47;;;;;;;39.44;25.75;100036.22;5549679;32;35520;-70
2022/08/28 10:58:40;;;;;;;4.78;2.28;;;;;;;41.23;24.55;100033.69;5550111;32;35148;-69
2022/08/28 11:01:45;;;;;;;8.38;2.62;;;;;;;40.39;24.41;100026.66;5536379;32;35449;-70
2022/08/28 11:04:48;;;;;;;4.53;2.42;;;;;;;41.50;22.76;100032.38;5536206;32;32722;-69
2022/08/28 11:07:55;;;;;;;6.40;2.35;;;;;;;41.33;23.59;100026.63;5536195;32;35537;-69
2022/08/28 11:11:01;;;;;;;4.82;2.28;;;;;;;41.97;22.50;100036.38;5535965;32;34859;-68
2022/08/28 11:14:03;;;;;;;4.60;2.50;;;;;;;41.81;22.40;100030.25;5535687;32;33625;-70
2022/08/28 11:17:31;;;;;;;7.15;2.60;;;;;;;40.72;23.20;100033.47;5535718;32;33375;-70
2022/08/28 11:21:17;;;;;;;5.90;2.65;;;;;;;42.91;21.04;100032.53;5532726;32;33661;-70
2022/08/28 11:24:25;;;;;;;4.03;2.22;;;;;;;42.63;21.13;100035.19;5549313;32;34288;-70
2022/08/28 11:27:35;;;;;;;5.82;2.37;;;;;;;42.66;21.33;100026.03;5522903;32;32833;-70
2022/08/28 11:30:39;;;;;;;7.00;2.60;;;;;;;41.67;21.72;100024.56;5549310;32;34927;-70
2022/08/28 11:33:51;;;;;;;5.53;2.22;;;;;;;43.79;19.71;100033.09;5523215;32;34192;-70
2022/08/28 11:37:01;;;;;;;6.55;2.30;;;;;;;44.76;19.14;100019.34;5535641;32;34544;-70
2022/08/28 11:40:19;;;;;;;5.93;2.20;;;;;;;44.18;18.92;100026.28;5551308;32;34201;-70
2022/08/28 11:43:22;;;;;;;8.70;2.72;;;;;;;44.08;19.19;100015.12;5551581;32;34759;-74
2022/08/28 11:46:32;;;;;;;5.82;2.47;;;;;;;42.18;21.46;100017.00;5550975;32;32898;-70
2022/08/28 11:49:40;;;;;;;3.50;1.90;;;;;;;44.74;19.26;100018.12;5537426;32;34107;-71
2022/08/28 11:53:01;;;;;;;2.92;1.75;;;;;;;41.60;22.77;100009.41;5551428;32;34858;-71
2022/08/28 11:56:34;;;;;;;6.50;1.87;;;;;;;44.19;19.95;100010.31;5551522;32;34883;-69
2022/08/28 11:59:56;;;;;;;7.90;2.12;;;;;;;41.62;21.98;100000.66;5551541;32;34934;-69
2022/08/28 12:03:05;;;;;;;4.75;2.15;;;;;;;40.92;22.73;100009.06;5551122;32;34534;-70
2022/08/28 12:06:10;;;;;;;7.28;2.03;;;;;;;40.62;23.23;99998.78;5551647;32;34136;-70
2022/08/28 12:09:36;;;;;;;6.70;2.30;;;;;;;40.94;23.09;100004.72;5512212;32;32657;-69
2022/08/28 12:12:45;;;;;;;5.53;2.40;;;;;;;40.26;23.04;99989.16;5551216;32;34122;-71
2022/08/28 12:16:04;;;;;;;4.20;2.22;;;;;;;42.23;21.87;99994.31;5551267;32;34359;-69
2022/08/28 12:19:08;;;;;;;4.97;2.12;;;;;;;45.16;17.85;99994.72;5537849;32;33967;-69
2022/08/28 12:22:18;;;;;;;4.43;2.28;;;;;;;43.27;19.34;99993.56;5538081;32;34231;-70
2022/08/28 12:25:32;;;;;;;5.50;2.00;;;;;;;39.71;23.85;99987.09;5551153;32;34099;-69
2022/08/28 12:29:01;;;;;;;4.00;1.90;;;;;;;37.70;27.81;99996.41;5537591;32;33087;-69
2022/08/28 12:32:31;;;;;;;5.60;2.20;;;;;;;35.65;31.90;99987.56;5551548;32;34655;-69
2022/08/28 12:35:35;;;;;;;3.90;2.00;;;;;;;38.63;27.56;99991.81;5537221;32;33117;-69
2022/08/28 12:38:52;;;;;;;5.47;2.03;;;;;;;39.30;27.71;99988.75;5550996;32;34246;-69
2022/08/28 12:41:57;;;;;;;7.47;2.22;;;;;;;38.53;28.48;99994.37;5551280;32;34307;-68
2022/08/28 12:45:05;;;;;;;4.75;1.92;;;;;;;36.09;31.87;99994.97;5524708;32;33571;-69
2022/08/28 12:48:22;;;;;;;2.85;1.80;;;;;;;36.86;31.40;99984.66;5537720;32;34246;-70
2022/08/28 12:51:29;;;;;;;3.80;2.10;;;;;;;38.39;28.59;99982.97;5550986;32;34304;-69
2022/08/28 12:54:31;;;;;;;4.75;1.92;;;;;;;37.60;29.91;99991.41;5537083;32;32865;-69
2022/08/28 12:57:34;;;;;;;6.28;1.80;;;;;;;38.56;28.48;99986.13;5537294;32;32803;-68
2022/08/28 13:00:53;;;;;;;3.95;2.20;;;;;;;41.90;24.36;99984.19;5537168;32;32594;-69
2022/08/28 13:04:34;;;;;;;9.43;2.33;;;;;;;42.72;22.67;99984.63;5537540;32;32622;-68
2022/08/28 13:07:47;;;;;;;5.12;2.53;;;;;;;40.90;24.26;99980.84;5537334;32;33844;-68
2022/08/28 13:10:50;;;;;;;3.17;1.83;;;;;;;39.17;26.39;99974.25;5551098;32;34860;-69
2022/08/28 13:13:53;;;;;;;4.32;2.05;;;;;;;39.20;26.20;99973.53;5550698;32;35421;-70
2022/08/28 13:16:56;;;;;;;4.22;1.85;;;;;;;39.64;25.57;99973.09;5550205;32;34466;-68
2022/08/28 13:20:06;;;;;;;3.97;1.90;;;;;;;40.45;25.13;99976.28;5536970;32;33783;-69
2022/08/28 13:23:27;;;;;;;6.05;1.83;;;;;;;41.32;23.93;99972.94;5537303;32;32746;-69
2022/08/28 13:26:33;;;;;;;8.20;2.10;;;;;;;42.34;22.38;99969.31;5550638;32;34185;-69
2022/08/28 13:29:50;;;;;;;4.53;1.80;;;;;;;41.16;24.09;99961.25;5537098;32;32772;-69
2022/08/28 13:33:18;;;;;;;2.75;1.83;;;;;;;39.14;26.66;99958.34;5550990;32;34845;-70
2022/08/28 13:36:23;;;;;;;6.55;2.30;;;;;;;41.59;24.29;99965.22;5537055;32;32632;-69
2022/08/28 13:39:29;;;;;;;3.40;1.80;;;;;;;39.51;26.02;99958.59;5523636;32;32980;-68
2022/08/28 13:42:38;;;;;;;4.65;1.98;;;;;;;41.09;24.14;99962.00;5536278;32;32957;-68
2022/08/28 13:45:43;;;;;;;3.70;2.00;;;;;;;39.07;26.26;99952.69;5536869;32;32573;-68
2022/08/28 13:48:46;;;;;;;4.18;1.73;;;;;;;38.38;27.35;99945.31;5550419;32;33765;-70
2022/08/28 13:51:50;;;;;;;4.60;2.10;;;;;;;40.21;24.95;99949.78;5536888;32;34191;-69
2022/08/28 13:55:03;;;;;;;3.70;1.83;;;;;;;38.11;27.71;99936.84;5536730;32;33174;-70
2022/08/28 13:58:09;;;;;;;4.85;2.22;;;;;;;41.45;23.62;99934.47;5550215;32;34280;-69
2022/08/28 14:01:13;;;;;;;7.82;2.60;;;;;;;42.63;21.87;99940.34;5550053;32;34082;-69
2022/08/28 14:04:18;;;;;;;5.50;2.00;;;;;;;37.55;28.78;99935.50;5535978;32;32860;-69
2022/08/28 14:07:22;;;;;;;5.00;2.10;;;;;;;39.23;27.12;99930.34;5550210;32;34925;-69
2022/08/28 14:10:26;;;;;;;4.47;2.03;;;;;;;38.43;27.37;99925.63;5550416;32;34881;-70
2022/08/28 14:13:32;;;;;;;5.50;2.62;;;;;;;39.03;26.93;99922.09;5550187;32;35548;-68
2022/08/28 14:16:39;;;;;;;4.68;2.00;;;;;;;37.65;29.12;99921.94;5550216;32;34277;-68
2022/08/28 14:19:41;;;;;;;4.87;2.67;;;;;;;34.97;34.57;99914.72;5536692;32;34522;-71
2022/08/28 14:22:44;;;;;;;3.78;2.00;;;;;;;32.95;39.25;99910.34;5536266;32;34955;-69
2022/08/28 14:25:48;;;;;;;6.30;2.30;;;;;;;32.96;39.83;99920.22;5549799;32;34974;-69
2022/08/28 14:29:03;;;;;;;5.57;2.45;;;;;;;32.63;40.78;99905.38;5536238;32;33675;-69
2022/08/28 14:32:07;;;;;;;5.05;2.58;;;;;;;34.04;37.44;99914.03;5536434;32;35527;-69
2022/08/28 14:35:14;;;;;;;5.90;2.58;;;;;;;33.61;37.62;99918.97;5536768;32;34119;-68
2022/08/28 14:38:17;;;;;;;5.12;2.50;;;;;;;33.48;38.49;99929.09;5536210;32;32380;-69
2022/08/28 14:41:21;;;;;;;5.30;2.40;;;;;;;31.71;41.19;99918.34;5549902;32;34888;-66